Victory, Vermont
Current Conditions -  °F | °C
As of 1:15 AM on Friday 19 Dec 2014 (Local Time) from KCDA Reporting Station
Overcast Overcast  
Wind Chill: 20°   Ceiling: 1600
Heat Index: 27°   Visibility: 10mi
Dew Point: 23°   Wind: 6mph
Humidity: 84%   Direction: 250°WSW
Pressure: 29.84"   Gusts: NA
Location:  44.5627°N, 71.7775°W
Report Text: KCDA 190615Z AUTO 25005KT 10SM OVC016 M03/M05 A2984 RMK AO2 T10291052
Loading
Personal Weather Stations






























Interactive Weather Map New forecast layout! Learn more

10-Day Weather Forecast

Advertisements
Track Severe Weather on mobile